createdAt,value
2019-05-30T00:00:46.156Z,71.6
2019-05-30T00:05:46.109Z,72.1
2019-05-30T00:10:46.106Z,71.8
2019-05-30T00:15:46.078Z,72.1
2019-05-30T00:20:46.101Z,72.2
2019-05-30T00:25:46.095Z,73.1
2019-05-30T00:30:46.078Z,72
2019-05-30T00:35:46.113Z,71.9
2019-05-30T00:40:46.139Z,72.3
2019-05-30T00:45:46.079Z,72.1
2019-05-30T00:50:46.026Z,72.2
2019-05-30T00:55:46.182Z,71.4
2019-05-30T01:01:01.145Z,71.4
2019-05-30T01:05:46.109Z,72.9
2019-05-30T01:10:46.083Z,72.7
2019-05-30T01:15:46.070Z,71.8
2019-05-30T01:20:46.764Z,72.5
2019-05-30T01:25:46.073Z,73.4
2019-05-30T01:31:05.429Z,71.8
2019-05-30T01:35:46.047Z,74.7
2019-05-30T01:40:46.130Z,75.6
2019-05-30T01:45:46.080Z,73.7
2019-05-30T01:50:46.014Z,73
2019-05-30T01:55:48.730Z,71.7
2019-05-30T02:00:46.035Z,72.7
2019-05-30T02:05:46.021Z,72.7
2019-05-30T02:10:46.612Z,75
2019-05-30T02:15:46.034Z,73.1
2019-05-30T02:20:46.063Z,73.2
2019-05-30T02:25:46.046Z,72.2
2019-05-30T02:30:46.068Z,71.8
2019-05-30T02:35:46.022Z,71.6
2019-05-30T02:40:46.035Z,71.3
2019-05-30T02:45:45.998Z,68.8
2019-05-30T02:50:46.164Z,68.8
2019-05-30T02:55:46.328Z,67.6
2019-05-30T03:00:46.137Z,67.3
2019-05-30T03:05:46.028Z,65.6
2019-05-30T03:10:46.089Z,65.4
2019-05-30T03:15:46.125Z,66.1
2019-05-30T03:20:46.460Z,64.6
2019-05-30T03:25:46.009Z,66.3
2019-05-30T03:30:48.286Z,64.4
2019-05-30T03:35:58.609Z,63
2019-05-30T03:40:48.440Z,63.9
2019-05-30T03:45:47.877Z,63.9
2019-05-30T03:50:53.249Z,65.4
2019-05-30T03:55:52.215Z,63.4
2019-05-30T04:00:54.215Z,61.3
2019-05-30T04:06:03.878Z,61
2019-05-30T04:10:52.047Z,62.3
2019-05-30T04:15:46.000Z,61.6
2019-05-30T04:20:45.899Z,63.7
2019-05-30T04:25:45.934Z,66.6
2019-05-30T04:30:45.919Z,65.8
2019-05-30T04:35:45.878Z,65.5
2019-05-30T04:40:46.085Z,64.6
2019-05-30T04:45:46.223Z,64
2019-05-30T04:50:45.895Z,63.8
2019-05-30T04:55:45.870Z,64.3
2019-05-30T05:00:45.884Z,63.2
2019-05-30T05:05:45.833Z,62.1
2019-05-30T05:10:46.018Z,61.4
2019-05-30T05:15:45.872Z,62.1
2019-05-30T05:20:48.665Z,61.6
2019-05-30T05:26:01.848Z,60.7
2019-05-30T05:30:46.949Z,59.7
2019-05-30T05:35:45.878Z,60
2019-05-30T05:40:46.023Z,60
2019-05-30T05:45:45.924Z,59.3
2019-05-30T05:50:49.993Z,58.3
2019-05-30T05:55:45.841Z,58
2019-05-30T06:00:46.584Z,58.3
2019-05-30T06:06:01.050Z,56.5
2019-05-30T06:10:46.894Z,54.8
2019-05-30T06:15:46.609Z,54.6
2019-05-30T06:20:46.586Z,55.4
2019-05-30T06:25:49.396Z,55.8
2019-05-30T06:30:46.522Z,58.6
2019-05-30T06:35:46.589Z,57.2
2019-05-30T06:40:48.617Z,58.3
2019-05-30T06:45:46.895Z,57.1
2019-05-30T06:50:47.455Z,56.8
2019-05-30T06:55:47.883Z,56.7
2019-05-30T07:00:47.536Z,56.2
2019-05-30T07:05:53.030Z,55.1
2019-05-30T07:10:47.681Z,52.5
2019-05-30T07:15:48.945Z,59.4
2019-05-30T07:20:46.494Z,63.9
2019-05-30T07:25:46.654Z,61.9
2019-05-30T07:30:46.678Z,63.1
2019-05-30T07:35:46.632Z,61.9
2019-05-30T07:40:47.373Z,63.3
2019-05-30T07:45:59.651Z,61.3
2019-05-30T07:50:47.254Z,60.7
2019-05-30T07:55:48.361Z,65
2019-05-30T08:00:48.152Z,63.9
2019-05-30T08:05:47.379Z,61.5
2019-05-30T08:10:46.724Z,63.1
2019-05-30T08:15:55.367Z,64.5
2019-05-30T08:20:46.472Z,62.7
2019-05-30T08:25:47.043Z,61.5
2019-05-30T08:30:47.191Z,62.3
2019-05-30T08:36:07.800Z,58.9
2019-05-30T08:40:48.238Z,59.6
2019-05-30T08:45:46.564Z,60.4
2019-05-30T08:50:53.271Z,60.8
2019-05-30T08:55:47.030Z,58.8
2019-05-30T09:00:46.438Z,60
2019-05-30T09:06:04.792Z,59.1
2019-05-30T09:10:51.013Z,59.5
2019-05-30T09:15:49.703Z,60.8
2019-05-30T09:20:51.656Z,60.8
2019-05-30T09:25:51.464Z,61
2019-05-30T09:30:48.594Z,60.1
2019-05-30T09:35:49.168Z,61
2019-05-30T09:40:49.728Z,62.1
2019-05-30T09:45:46.424Z,58.4
2019-05-30T09:50:47.326Z,61
2019-05-30T09:55:46.568Z,58.6
2019-05-30T10:00:47.269Z,56.6
2019-05-30T10:05:48.627Z,54.5
2019-05-30T10:10:49.348Z,59.5
2019-05-30T10:15:48.635Z,59
2019-05-30T10:20:49.411Z,58.3
2019-05-30T10:25:49.398Z,60
2019-05-30T10:30:53.531Z,57.4
2019-05-30T10:35:49.120Z,57.1
2019-05-30T10:41:04.948Z,57.2
2019-05-30T10:45:59.632Z,51.9
2019-05-30T10:50:58.723Z,55.2
2019-05-30T10:55:58.624Z,58.8
2019-05-30T11:01:00.306Z,59.9
2019-05-30T11:06:12.686Z,56.9
2019-05-30T11:10:56.929Z,59.2
2019-05-30T11:16:00.042Z,57.8
2019-05-30T11:20:56.504Z,58.1
2019-05-30T11:25:56.943Z,55.1
2019-05-30T11:30:56.952Z,54.6
2019-05-30T11:35:57.235Z,58.7
2019-05-30T11:40:55.908Z,58.9
2019-05-30T11:45:56.045Z,56.3
2019-05-30T11:50:55.884Z,54.8
2019-05-30T11:55:56.291Z,50.1
2019-05-30T12:00:56.764Z,53.8
2019-05-30T12:05:57.269Z,58.1
2019-05-30T12:10:57.220Z,60.5
2019-05-30T12:15:57.530Z,61.9
2019-05-30T12:25:56.060Z,58.2
2019-05-30T12:31:19.273Z,58.5
2019-05-30T12:35:56.543Z,55.5
2019-05-30T12:40:56.803Z,52.9
2019-05-30T12:45:56.974Z,53.4
2019-05-30T12:50:55.791Z,53
2019-05-30T12:55:56.436Z,54.7
2019-05-30T13:00:56.698Z,58.6
2019-05-30T13:05:57.188Z,53.5
2019-05-30T13:10:57.482Z,51.6
2019-05-30T13:15:56.681Z,50.1
2019-05-30T13:20:55.998Z,53.7
2019-05-30T13:25:55.818Z,49.5
2019-05-30T13:30:56.149Z,50.4
2019-05-30T13:35:56.969Z,54
2019-05-30T13:40:55.829Z,53.7
2019-05-30T13:45:55.808Z,57.1
2019-05-30T13:50:55.786Z,56.6
2019-05-30T13:55:55.788Z,54.1
2019-05-30T14:00:55.765Z,57.6
2019-05-30T14:05:55.881Z,59.2
2019-05-30T14:11:00.484Z,57.5
2019-05-30T14:15:55.853Z,58
2019-05-30T14:20:55.796Z,56.8
2019-05-30T14:25:55.789Z,59.1
2019-05-30T14:30:55.746Z,57.5
2019-05-30T14:35:55.774Z,56.9
2019-05-30T14:40:55.700Z,57.4
2019-05-30T14:45:55.711Z,59.6
2019-05-30T14:50:55.757Z,58.2
2019-05-30T14:55:55.731Z,59.4
2019-05-30T15:00:55.730Z,58.8
2019-05-30T15:05:55.749Z,57.9
2019-05-30T15:10:55.735Z,58
2019-05-30T15:15:59.179Z,59.1
2019-05-30T15:20:55.746Z,59.5
2019-05-30T15:25:55.718Z,58.8
2019-05-30T15:30:55.768Z,58
2019-05-30T15:35:55.716Z,58
2019-05-30T15:40:55.743Z,59.5
2019-05-30T15:45:55.680Z,59.9
2019-05-30T15:50:55.680Z,58.2
2019-05-30T15:55:55.707Z,59.4
2019-05-30T16:00:55.728Z,60.1
2019-05-30T16:05:56.825Z,61.4
2019-05-30T16:11:02.000Z,60.3
2019-05-30T16:16:02.287Z,60.5
2019-05-30T16:21:01.964Z,60.8
2019-05-30T16:26:02.007Z,60.8
2019-05-30T16:31:01.984Z,62.4
2019-05-30T16:36:01.992Z,63.7
2019-05-30T16:41:02.117Z,63.3
2019-05-30T16:46:02.152Z,63.8
2019-05-30T16:51:01.953Z,63.8
2019-05-30T16:56:02.026Z,64.4
2019-05-30T17:01:03.231Z,64.9
2019-05-30T17:06:03.964Z,65.5
2019-05-30T17:11:01.961Z,65.9
2019-05-30T17:16:01.939Z,66.8
2019-05-30T17:21:01.981Z,65.9
2019-05-30T17:26:01.977Z,67.6
2019-05-30T17:31:01.976Z,67.5
2019-05-30T17:36:01.991Z,67.3
2019-05-30T17:41:06.097Z,67.9
2019-05-30T17:46:02.009Z,68.7
2019-05-30T17:51:01.935Z,69.1
2019-05-30T17:56:01.943Z,68.5
2019-05-30T18:01:05.329Z,69.5
2019-05-30T18:06:01.897Z,69.4
2019-05-30T18:11:10.350Z,69.1
2019-05-30T18:16:01.854Z,69.2
2019-05-30T18:21:05.131Z,69.7
2019-05-30T18:26:01.903Z,70.5
2019-05-30T18:31:01.914Z,70.9
2019-05-30T18:36:01.882Z,72
2019-05-30T18:41:18.830Z,71.6
2019-05-30T18:46:01.895Z,71.9
2019-05-30T18:51:01.909Z,71.8
2019-05-30T18:56:01.835Z,71.9
2019-05-30T19:01:01.832Z,72.1
2019-05-30T19:06:04.971Z,72.3
2019-05-30T19:11:01.890Z,71.9
2019-05-30T19:16:01.857Z,73.7
2019-05-30T19:21:01.880Z,73.9
2019-05-30T19:26:02.941Z,72.8
2019-05-30T19:31:02.004Z,74.2
2019-05-30T19:36:04.169Z,73.3
2019-05-30T19:41:01.892Z,73.9
2019-05-30T19:46:01.882Z,73.6
2019-05-30T19:51:01.792Z,73.2
2019-05-30T19:56:01.826Z,73.1
2019-05-30T20:01:14.878Z,72.8
2019-05-30T20:06:01.855Z,74.1
2019-05-30T20:11:01.782Z,74.1
2019-05-30T20:16:01.791Z,73.9
2019-05-30T20:21:13.737Z,74.3
2019-05-30T20:26:02.617Z,74.9
2019-05-30T20:31:01.763Z,75.1
2019-05-30T20:36:01.753Z,74.5
2019-05-30T20:41:01.824Z,75.4
2019-05-30T20:46:05.379Z,76.1
2019-05-30T20:51:01.907Z,75.6
2019-05-30T20:56:01.951Z,75
2019-05-30T21:01:02.346Z,76.4
2019-05-30T21:06:02.957Z,76.6
2019-05-30T21:11:02.992Z,75.9
2019-05-30T21:16:04.327Z,76.6
2019-05-30T21:21:02.825Z,75.9
2019-05-30T21:26:02.021Z,75.2
2019-05-30T21:31:02.030Z,76.5
2019-05-30T21:36:02.834Z,76.3
2019-05-30T21:41:03.217Z,75.6
2019-05-30T21:46:01.795Z,76.3
2019-05-30T21:51:04.695Z,76.4
2019-05-30T21:56:02.664Z,76.3
2019-05-30T22:01:36.456Z,76.7
2019-05-30T22:06:06.576Z,76.5
2019-05-30T22:11:02.207Z,76.1
2019-05-30T22:16:02.869Z,75.6
2019-05-30T22:21:02.543Z,77
2019-05-30T22:26:03.455Z,77
2019-05-30T22:31:03.290Z,77.5
2019-05-30T22:36:01.741Z,77.3
2019-05-30T22:41:02.764Z,77.2
2019-05-30T22:46:02.883Z,76.7
2019-05-30T22:51:01.708Z,77.3
2019-05-30T22:56:05.784Z,76.6
2019-05-30T23:01:02.630Z,76.5
2019-05-30T23:06:01.967Z,77.8
2019-05-30T23:11:02.181Z,79
2019-05-30T23:16:03.201Z,78.3
2019-05-30T23:26:03.812Z,79.2
2019-05-30T23:31:02.410Z,79.4
2019-05-30T23:36:02.982Z,78.1
2019-05-30T23:41:03.553Z,78.8
2019-05-30T23:46:04.130Z,79.5
2019-05-30T23:51:02.297Z,78
2019-05-30T23:56:02.765Z,78.5
